createdAt,value
2022-10-30T00:00:41.362Z,100168.56
2022-10-30T00:03:16.038Z,100164.31
2022-10-30T00:05:47.322Z,100168.06
2022-10-30T00:08:16.154Z,100165.69
2022-10-30T00:10:43.842Z,100161.41
2022-10-30T00:13:11.432Z,100159.50
2022-10-30T00:15:38.688Z,100163.44
2022-10-30T00:18:06.737Z,100161.03
2022-10-30T00:20:36.192Z,100156.78
2022-10-30T00:23:03.235Z,100161.91
2022-10-30T00:25:30.240Z,100157.63
2022-10-30T00:27:57.329Z,100165.81
2022-10-30T00:30:24.326Z,100162.41
2022-10-30T00:32:51.340Z,100157.31
2022-10-30T00:35:18.331Z,100152.69
2022-10-30T00:37:45.288Z,100149.13
2022-10-30T00:40:15.616Z,100140.22
2022-10-30T00:42:42.732Z,100145.34
2022-10-30T00:45:15.015Z,100138.38
2022-10-30T00:47:54.474Z,100139.41
2022-10-30T00:50:30.194Z,100144.47
2022-10-30T00:53:03.407Z,100148.56
2022-10-30T00:55:39.042Z,100138.84
2022-10-30T00:58:10.830Z,100137.50
2022-10-30T01:00:42.070Z,100142.94
2022-10-30T01:03:09.462Z,100141.41
2022-10-30T01:05:36.716Z,100149.44
2022-10-30T01:08:04.316Z,100143.31
2022-10-30T01:10:31.398Z,100141.41
2022-10-30T01:13:00.340Z,100137.16
2022-10-30T01:15:33.264Z,100140.91
2022-10-30T01:18:31.297Z,100137.31
2022-10-30T01:21:14.129Z,100137.16
2022-10-30T01:23:56.723Z,100130.00
2022-10-30T01:26:50.024Z,100140.03
2022-10-30T01:29:38.507Z,100132.91
2022-10-30T01:32:25.165Z,100119.94
2022-10-30T01:35:02.264Z,100118.91
2022-10-30T01:37:57.671Z,100122.66
2022-10-30T01:40:24.963Z,100110.72
2022-10-30T01:42:58.635Z,100115.84
2022-10-30T01:45:47.676Z,100124.84
2022-10-30T01:48:44.405Z,100122.13
2022-10-30T01:51:33.907Z,100116.66
2022-10-30T01:54:23.645Z,100110.56
2022-10-30T01:57:24.840Z,100124.50
2022-10-30T02:00:11.115Z,100126.72
2022-10-30T02:02:41.970Z,100114.63
2022-10-30T02:05:19.839Z,100119.19
2022-10-30T02:07:47.767Z,100122.28
2022-10-30T02:10:15.015Z,100119.72
2022-10-30T02:12:42.472Z,100113.72
2022-10-30T02:15:11.621Z,100110.50
2022-10-30T02:17:39.000Z,100106.91
2022-10-30T02:20:07.582Z,100112.34
2022-10-30T02:22:34.641Z,100107.09
2022-10-30T02:25:01.605Z,100108.97
2022-10-30T02:27:28.900Z,100113.72
2022-10-30T02:29:55.890Z,100118.31
2022-10-30T02:32:22.892Z,100116.78
2022-10-30T02:34:49.852Z,100112.69
2022-10-30T02:37:16.828Z,100116.75
2022-10-30T02:39:44.088Z,100111.13
2022-10-30T02:42:11.112Z,100111.28
2022-10-30T02:44:38.141Z,100108.00
2022-10-30T02:47:05.188Z,100110.06
2022-10-30T02:49:32.353Z,100103.59
2022-10-30T02:52:00.559Z,100118.06
2022-10-30T02:54:27.558Z,100119.78
2022-10-30T02:56:54.683Z,100124.53
2022-10-30T02:59:22.003Z,100125.69
2022-10-30T03:01:50.549Z,100111.56
2022-10-30T03:04:17.603Z,100113.22
2022-10-30T03:06:44.580Z,100106.41
2022-10-30T03:09:11.562Z,100106.59
2022-10-30T03:11:38.568Z,100110.66
2022-10-30T03:14:05.686Z,100112.66
2022-10-30T03:16:32.704Z,100116.91
2022-10-30T03:18:59.946Z,100120.47
2022-10-30T03:21:28.054Z,100126.94
2022-10-30T03:23:55.629Z,100125.06
2022-10-30T03:26:23.208Z,100130.19
2022-10-30T03:29:04.993Z,100135.63
2022-10-30T03:31:32.774Z,100135.78
2022-10-30T03:34:27.293Z,100135.28
2022-10-30T03:36:54.585Z,100138.81
2022-10-30T03:39:21.726Z,100144.28
2022-10-30T03:41:48.813Z,100152.78
2022-10-30T03:44:15.785Z,100142.72
2022-10-30T03:46:42.749Z,100154.63
2022-10-30T03:49:31.518Z,100139.50
2022-10-30T03:52:00.663Z,100151.41
2022-10-30T03:54:27.744Z,100141.69
2022-10-30T03:56:54.721Z,100138.41
2022-10-30T03:59:23.244Z,100139.59
2022-10-30T04:02:17.099Z,100144.00
2022-10-30T04:04:44.392Z,100142.31
2022-10-30T04:07:11.417Z,100143.81
2022-10-30T04:09:38.397Z,100147.22
2022-10-30T04:12:05.705Z,100141.78
2022-10-30T04:14:32.674Z,100145.53
2022-10-30T04:16:59.710Z,100145.19
2022-10-30T04:19:26.741Z,100145.19
2022-10-30T04:21:53.774Z,100145.03
2022-10-30T04:24:20.834Z,100143.34
2022-10-30T04:26:52.502Z,100139.91
2022-10-30T04:29:19.534Z,100132.59
2022-10-30T04:31:46.557Z,100139.91
2022-10-30T04:34:14.226Z,100146.38
2022-10-30T04:36:41.310Z,100130.75
2022-10-30T04:39:08.317Z,100133.13
2022-10-30T04:41:35.453Z,100136.72
2022-10-30T04:44:08.696Z,100133.69
2022-10-30T04:46:35.818Z,100134.16
2022-10-30T04:49:08.308Z,100123.78
2022-10-30T04:51:35.645Z,100118.47
2022-10-30T04:54:04.095Z,100116.78
2022-10-30T04:56:31.839Z,100118.63
2022-10-30T04:58:59.602Z,100111.28
2022-10-30T05:01:26.681Z,100104.13
2022-10-30T05:03:55.002Z,100101.00
2022-10-30T05:06:25.974Z,100101.50
2022-10-30T05:08:53.390Z,100096.22
2022-10-30T05:11:32.198Z,100095.59
2022-10-30T05:13:59.186Z,100095.81
2022-10-30T05:16:26.424Z,100098.38
2022-10-30T05:18:55.162Z,100097.53
2022-10-30T05:21:22.283Z,100099.91
2022-10-30T05:23:49.321Z,100107.47
2022-10-30T05:26:16.453Z,100104.59
2022-10-30T05:28:43.562Z,100096.72
2022-10-30T05:31:10.612Z,100098.13
2022-10-30T05:33:58.644Z,100101.09
2022-10-30T05:36:26.610Z,100098.88
2022-10-30T05:38:54.651Z,100097.72
2022-10-30T05:41:32.500Z,100099.09
2022-10-30T05:43:59.657Z,100104.38
2022-10-30T05:46:26.762Z,100106.09
2022-10-30T05:48:58.793Z,100099.09
2022-10-30T05:51:25.823Z,100101.66
2022-10-30T05:53:56.186Z,100102.69
2022-10-30T05:56:27.075Z,100102.88
2022-10-30T05:58:56.543Z,100105.28
2022-10-30T06:01:23.723Z,100108.88
2022-10-30T06:03:54.274Z,100101.38
2022-10-30T06:06:21.307Z,100103.94
2022-10-30T06:08:48.304Z,100095.47
2022-10-30T06:11:29.769Z,100097.00
2022-10-30T06:13:59.286Z,100099.72
2022-10-30T06:16:47.280Z,100104.16
2022-10-30T06:19:34.481Z,100091.06
2022-10-30T06:22:21.132Z,100093.47
2022-10-30T06:24:54.095Z,100089.72
2022-10-30T06:27:37.239Z,100090.56
2022-10-30T06:30:04.776Z,100093.97
2022-10-30T06:32:31.825Z,100101.31
2022-10-30T06:34:58.902Z,100098.75
2022-10-30T06:37:25.923Z,100101.94
2022-10-30T06:39:53.242Z,100102.09
2022-10-30T06:42:47.544Z,100099.59
2022-10-30T06:45:32.110Z,100116.47
2022-10-30T06:48:02.584Z,100116.50
2022-10-30T06:50:34.447Z,100120.25
2022-10-30T06:53:01.453Z,100118.59
2022-10-30T06:55:28.527Z,100117.56
2022-10-30T06:58:11.762Z,100116.91
2022-10-30T07:03:17.540Z,100116.09
2022-10-30T07:05:44.624Z,100128.91
2022-10-30T07:08:12.165Z,100119.34
2022-10-30T07:10:40.260Z,100119.19
2022-10-30T07:13:21.722Z,100126.03
2022-10-30T07:16:23.117Z,100133.19
2022-10-30T07:18:51.044Z,100139.50
2022-10-30T07:21:18.170Z,100126.38
2022-10-30T07:23:45.211Z,100117.53
2022-10-30T07:26:22.206Z,100124.03
2022-10-30T07:28:50.807Z,100125.41
2022-10-30T07:31:41.844Z,100135.78
2022-10-30T07:34:28.274Z,100140.38
2022-10-30T07:37:13.788Z,100138.19
2022-10-30T07:39:45.549Z,100145.69
2022-10-30T07:42:19.144Z,100145.38
2022-10-30T07:45:05.177Z,100145.53
2022-10-30T07:47:44.335Z,100150.47
2022-10-30T07:50:17.645Z,100135.97
2022-10-30T07:52:44.811Z,100148.22
2022-10-30T07:55:11.839Z,100147.16
2022-10-30T07:57:59.368Z,100153.94
2022-10-30T08:00:45.254Z,100149.81
2022-10-30T08:03:21.847Z,100158.63
2022-10-30T08:05:55.091Z,100159.06
2022-10-30T08:08:39.105Z,100159.34
2022-10-30T08:11:23.574Z,100158.94
2022-10-30T08:13:50.796Z,100158.88
2022-10-30T08:16:18.302Z,100152.59
2022-10-30T08:18:45.277Z,100149.34
2022-10-30T08:21:12.373Z,100148.31
2022-10-30T08:23:50.411Z,100152.06
2022-10-30T08:26:17.661Z,100140.22
2022-10-30T08:28:44.863Z,100153.81
2022-10-30T08:31:12.836Z,100154.91
2022-10-30T08:33:58.280Z,100150.34
2022-10-30T08:36:38.006Z,100146.56
2022-10-30T08:39:05.150Z,100142.38
2022-10-30T08:42:01.545Z,100138.59
2022-10-30T08:44:34.523Z,100131.81
2022-10-30T08:47:20.141Z,100131.47
2022-10-30T08:49:47.509Z,100129.94
2022-10-30T08:52:17.483Z,100127.19
2022-10-30T08:54:48.397Z,100122.94
2022-10-30T08:57:15.906Z,100113.84
2022-10-30T08:59:42.918Z,100127.56
2022-10-30T09:02:20.949Z,100120.53
2022-10-30T09:05:14.359Z,100126.84
2022-10-30T09:08:10.697Z,100117.31
2022-10-30T09:10:59.249Z,100115.66
2022-10-30T09:13:27.115Z,100120.03
2022-10-30T09:16:00.628Z,100116.69
2022-10-30T09:18:29.049Z,100126.50
2022-10-30T09:20:56.069Z,100121.56
2022-10-30T09:23:23.119Z,100125.47
2022-10-30T09:25:57.665Z,100127.22
2022-10-30T09:28:38.029Z,100120.94
2022-10-30T09:31:23.770Z,100131.13
2022-10-30T09:33:50.879Z,100124.44
2022-10-30T09:36:41.537Z,100119.81
2022-10-30T09:39:08.528Z,100123.00
2022-10-30T09:41:50.209Z,100121.19
2022-10-30T09:44:26.107Z,100125.91
2022-10-30T09:46:59.189Z,100121.72
2022-10-30T09:49:33.241Z,100126.81
2022-10-30T09:52:06.306Z,100122.41
2022-10-30T09:55:09.897Z,100127.13
2022-10-30T09:57:46.022Z,100127.34
2022-10-30T10:00:16.575Z,100126.09
2022-10-30T10:03:12.921Z,100129.16
2022-10-30T10:06:02.563Z,100132.34
2022-10-30T10:08:59.509Z,100124.28
2022-10-30T10:12:09.774Z,100124.72
2022-10-30T10:14:42.527Z,100117.06
2022-10-30T10:17:13.558Z,100121.97
2022-10-30T10:19:52.830Z,100112.41
2022-10-30T10:22:22.436Z,100106.88
2022-10-30T10:24:49.634Z,100111.13
2022-10-30T10:27:54.051Z,100110.03
2022-10-30T10:30:23.359Z,100108.09
2022-10-30T10:33:24.525Z,100101.06
2022-10-30T10:36:16.670Z,100099.94
2022-10-30T10:39:02.070Z,100104.34
2022-10-30T10:42:03.034Z,100099.00
2022-10-30T10:44:42.003Z,100095.75
2022-10-30T10:47:11.937Z,100090.59
2022-10-30T10:49:44.891Z,100092.03
2022-10-30T10:52:19.035Z,100090.69
2022-10-30T10:54:51.947Z,100088.31
2022-10-30T10:57:28.781Z,100087.63
2022-10-30T11:00:15.788Z,100083.28
2022-10-30T11:02:51.746Z,100085.16
2022-10-30T11:05:31.959Z,100080.19
2022-10-30T11:08:10.565Z,100078.22
2022-10-30T11:10:37.622Z,100075.81
2022-10-30T11:13:04.599Z,100071.47
2022-10-30T11:15:40.096Z,100066.94
2022-10-30T11:18:09.722Z,100066.66
2022-10-30T11:20:42.287Z,100064.13
2022-10-30T11:23:47.271Z,100067.06
2022-10-30T11:26:17.158Z,100059.50
2022-10-30T11:29:02.955Z,100061.59
2022-10-30T11:31:35.472Z,100060.59
2022-10-30T11:34:24.757Z,100056.94
2022-10-30T11:36:53.498Z,100056.00
2022-10-30T11:39:24.072Z,100056.22
2022-10-30T11:42:04.668Z,100051.78
2022-10-30T11:44:39.941Z,100053.47
2022-10-30T11:47:08.351Z,100049.31
2022-10-30T11:49:39.252Z,100049.94
2022-10-30T11:52:07.820Z,100042.84
2022-10-30T11:54:41.742Z,100045.06
2022-10-30T11:57:22.948Z,100038.22
2022-10-30T11:59:54.094Z,100035.13
2022-10-30T12:02:24.303Z,100039.34
2022-10-30T12:04:51.375Z,100033.94
2022-10-30T12:07:24.424Z,100036.13
2022-10-30T12:09:51.483Z,100034.94
2022-10-30T12:12:23.358Z,100029.41
2022-10-30T12:14:51.995Z,100031.13
2022-10-30T12:17:21.372Z,100028.25
2022-10-30T12:19:54.005Z,100030.75
2022-10-30T12:22:28.286Z,100023.41
2022-10-30T12:24:56.569Z,100016.44
2022-10-30T12:27:24.073Z,100022.34
2022-10-30T12:30:10.388Z,100016.47
2022-10-30T12:32:56.483Z,100013.84
2022-10-30T12:35:42.191Z,100016.38
2022-10-30T12:38:21.756Z,100017.22
2022-10-30T12:41:14.402Z,100012.13
2022-10-30T12:43:46.002Z,100008.16
2022-10-30T12:46:21.564Z,100012.13
2022-10-30T12:48:56.210Z,100009.09
2022-10-30T12:51:35.580Z,100011.72
2022-10-30T12:54:20.768Z,100007.13
2022-10-30T12:56:51.762Z,99999.03
2022-10-30T12:59:39.238Z,100004.13
2022-10-30T13:02:44.567Z,99992.28
2022-10-30T13:05:36.207Z,99999.50
2022-10-30T13:08:21.365Z,99993.78
2022-10-30T13:11:10.437Z,99989.69
2022-10-30T13:13:42.773Z,99983.06
2022-10-30T13:16:30.053Z,99990.03
2022-10-30T13:19:00.321Z,99992.91
2022-10-30T13:21:56.908Z,99980.22
2022-10-30T13:24:42.614Z,99977.53
2022-10-30T13:27:23.526Z,99973.53
2022-10-30T13:30:05.636Z,99977.78
2022-10-30T13:32:38.741Z,99973.78
2022-10-30T13:35:24.200Z,99978.84
2022-10-30T13:38:14.873Z,99986.31
2022-10-30T13:41:01.611Z,99964.16
2022-10-30T13:43:43.415Z,99977.53
2022-10-30T13:46:16.331Z,99983.94
2022-10-30T13:48:58.490Z,99977.16
2022-10-30T13:51:52.857Z,99976.94
2022-10-30T13:54:32.289Z,99978.38
2022-10-30T13:57:26.117Z,99979.31
2022-10-30T14:00:02.014Z,99976.28
2022-10-30T14:02:45.315Z,99981.28
2022-10-30T14:05:35.039Z,99974.69
2022-10-30T14:08:33.533Z,99979.53
2022-10-30T14:11:01.192Z,99973.00
2022-10-30T14:13:43.944Z,99970.69
2022-10-30T14:16:46.547Z,99970.09
2022-10-30T14:19:15.246Z,99966.34
2022-10-30T14:21:51.069Z,99978.09
2022-10-30T14:24:24.698Z,99966.19
2022-10-30T14:26:54.840Z,99976.69
2022-10-30T14:29:40.740Z,99975.59
2022-10-30T14:32:27.931Z,99972.06
2022-10-30T14:34:54.903Z,99978.06
2022-10-30T14:37:24.918Z,99979.66
2022-10-30T14:39:52.321Z,99975.03
2022-10-30T14:42:39.363Z,99979.78
2022-10-30T14:45:15.224Z,99974.09
2022-10-30T14:47:49.498Z,99979.13
2022-10-30T14:50:34.867Z,99976.78
2022-10-30T14:53:40.468Z,99974.75
2022-10-30T14:56:13.298Z,99972.47
2022-10-30T14:58:40.806Z,99971.66
2022-10-30T15:01:28.314Z,99975.06
2022-10-30T15:04:19.435Z,99979.56
2022-10-30T15:07:11.473Z,99978.72
2022-10-30T15:10:06.483Z,99980.88
2022-10-30T15:12:52.247Z,99973.53
2022-10-30T15:15:19.400Z,99978.00
2022-10-30T15:17:49.182Z,99977.38
2022-10-30T15:20:32.950Z,99975.28
2022-10-30T15:23:06.806Z,99976.13
2022-10-30T15:25:38.004Z,99988.47
2022-10-30T15:28:05.912Z,99977.66
2022-10-30T15:30:32.920Z,99981.69
2022-10-30T15:33:00.356Z,99982.78
2022-10-30T15:35:29.139Z,99977.50
2022-10-30T15:37:57.788Z,99979.81
2022-10-30T15:40:25.243Z,99983.00
2022-10-30T15:42:53.420Z,99981.50
2022-10-30T15:45:25.069Z,99990.81
2022-10-30T15:47:57.827Z,99987.00
2022-10-30T15:50:25.356Z,99989.13
2022-10-30T15:52:52.479Z,99997.16
2022-10-30T15:55:25.989Z,99997.13
2022-10-30T15:58:12.972Z,99994.59
2022-10-30T16:00:40.312Z,99993.97
2022-10-30T16:03:13.102Z,99999.00
2022-10-30T16:05:40.199Z,99998.16
2022-10-30T16:08:20.730Z,99995.81
2022-10-30T16:10:48.998Z,100003.38
2022-10-30T16:13:18.265Z,100000.41
2022-10-30T16:15:46.590Z,99996.34
2022-10-30T16:18:19.272Z,100000.94
2022-10-30T16:20:58.096Z,99992.69
2022-10-30T16:23:25.172Z,99999.63
2022-10-30T16:25:57.723Z,100002.78
2022-10-30T16:28:34.792Z,99994.28
2022-10-30T16:31:05.663Z,100000.16
2022-10-30T16:33:35.105Z,99999.47
2022-10-30T16:36:04.596Z,99990.56
2022-10-30T16:38:35.275Z,99998.97
2022-10-30T16:41:05.907Z,100000.41
2022-10-30T16:43:34.716Z,100001.19
2022-10-30T16:46:32.401Z,100008.13
2022-10-30T16:49:03.442Z,100016.31
2022-10-30T16:51:30.796Z,100016.31
2022-10-30T16:53:57.810Z,100015.22
2022-10-30T16:56:27.948Z,100022.16
2022-10-30T16:59:05.111Z,100018.09
2022-10-30T17:01:32.903Z,100022.09
2022-10-30T17:04:00.385Z,100028.19
2022-10-30T17:06:42.292Z,100023.28
2022-10-30T17:09:10.703Z,100031.06
2022-10-30T17:11:44.616Z,100039.50
2022-10-30T17:14:20.005Z,100040.94
2022-10-30T17:16:56.281Z,100038.56
2022-10-30T17:19:32.399Z,100038.13
2022-10-30T17:22:02.372Z,100050.53
2022-10-30T17:24:35.029Z,100053.84
2022-10-30T17:27:04.615Z,100054.25
2022-10-30T17:29:37.603Z,100057.13
2022-10-30T17:32:05.986Z,100062.09
2022-10-30T17:34:39.092Z,100063.53
2022-10-30T17:37:06.059Z,100067.25
2022-10-30T17:39:33.042Z,100066.97
2022-10-30T17:42:00.055Z,100070.88
2022-10-30T17:44:31.171Z,100077.56
2022-10-30T17:46:58.551Z,100069.25
2022-10-30T17:49:29.034Z,100072.59
2022-10-30T17:51:56.063Z,100077.97
2022-10-30T17:54:23.623Z,100085.63
2022-10-30T17:56:50.599Z,100088.94
2022-10-30T17:59:17.870Z,100093.09
2022-10-30T18:01:44.997Z,100096.22
2022-10-30T18:04:20.480Z,100099.50
2022-10-30T18:06:48.497Z,100103.00
2022-10-30T18:09:15.802Z,100098.75
2022-10-30T18:11:42.902Z,100105.19
2022-10-30T18:14:11.278Z,100115.53
2022-10-30T18:16:39.021Z,100109.75
2022-10-30T18:19:10.452Z,100111.53
2022-10-30T18:21:37.838Z,100113.78
2022-10-30T18:24:15.162Z,100121.53
2022-10-30T18:26:42.160Z,100122.72
2022-10-30T18:29:09.700Z,100122.72
2022-10-30T18:31:37.926Z,100131.31
2022-10-30T18:34:13.811Z,100123.47
2022-10-30T18:36:40.825Z,100126.56
2022-10-30T18:39:07.822Z,100123.38
2022-10-30T18:41:37.807Z,100122.53
2022-10-30T18:44:05.019Z,100126.38
2022-10-30T18:46:33.363Z,100131.66
2022-10-30T18:49:00.421Z,100132.00
2022-10-30T18:51:28.456Z,100138.53
2022-10-30T18:53:55.742Z,100143.50
2022-10-30T18:56:31.274Z,100138.56
2022-10-30T18:59:02.139Z,100141.66
2022-10-30T19:01:33.026Z,100147.69
2022-10-30T19:04:00.559Z,100140.00
2022-10-30T19:06:27.621Z,100141.56
2022-10-30T19:08:54.773Z,100138.06
2022-10-30T19:11:24.979Z,100141.50
2022-10-30T19:13:53.909Z,100149.56
2022-10-30T19:16:21.758Z,100144.97
2022-10-30T19:18:48.922Z,100147.06
2022-10-30T19:21:18.160Z,100161.06
2022-10-30T19:23:45.481Z,100156.81
2022-10-30T19:26:12.622Z,100154.25
2022-10-30T19:28:40.229Z,100158.19
2022-10-30T19:31:07.851Z,100158.22
2022-10-30T19:33:34.876Z,100162.16
2022-10-30T19:36:04.171Z,100162.84
2022-10-30T19:38:32.029Z,100158.59
2022-10-30T19:41:00.770Z,100155.38
2022-10-30T19:43:27.773Z,100156.56
2022-10-30T19:45:55.990Z,100158.78
2022-10-30T19:51:11.087Z,100174.34
2022-10-30T19:53:38.895Z,100183.03
2022-10-30T19:56:06.289Z,100181.84
2022-10-30T19:58:33.276Z,100184.25
2022-10-30T20:01:00.317Z,100181.34
2022-10-30T20:03:27.412Z,100173.88
2022-10-30T20:05:54.426Z,100173.88
2022-10-30T20:08:23.267Z,100176.22
2022-10-30T20:10:57.156Z,100183.75
2022-10-30T20:13:25.940Z,100177.44
2022-10-30T20:15:54.484Z,100186.63
2022-10-30T20:18:27.832Z,100181.50
2022-10-30T20:20:57.197Z,100184.75
2022-10-30T20:23:24.979Z,100185.25
2022-10-30T20:25:53.980Z,100187.31
2022-10-30T20:28:22.618Z,100190.03
2022-10-30T20:30:51.009Z,100197.84
2022-10-30T20:33:19.026Z,100195.50
2022-10-30T20:35:48.525Z,100196.69
2022-10-30T20:38:18.060Z,100202.47
2022-10-30T20:40:48.766Z,100194.09
2022-10-30T20:43:18.686Z,100211.16
2022-10-30T20:45:45.922Z,100210.31
2022-10-30T20:48:13.343Z,100208.06
2022-10-30T20:50:41.579Z,100206.22
2022-10-30T20:53:12.793Z,100214.72
2022-10-30T20:55:40.540Z,100212.31
2022-10-30T20:58:07.760Z,100212.13
2022-10-30T21:00:34.771Z,100207.53
2022-10-30T21:03:03.305Z,100212.94
2022-10-30T21:05:48.548Z,100211.56
2022-10-30T21:08:15.580Z,100209.31
2022-10-30T21:10:42.648Z,100223.47
2022-10-30T21:13:11.064Z,100226.34
2022-10-30T21:15:43.136Z,100227.88
2022-10-30T21:18:12.897Z,100229.72
2022-10-30T21:20:40.301Z,100232.63
2022-10-30T21:23:07.818Z,100233.78
2022-10-30T21:25:35.047Z,100233.78
2022-10-30T21:28:02.528Z,100243.00
2022-10-30T21:30:30.309Z,100240.78
2022-10-30T21:32:58.854Z,100245.34
2022-10-30T21:35:26.787Z,100242.13
2022-10-30T21:37:53.992Z,100246.84
2022-10-30T21:40:21.008Z,100252.31
2022-10-30T21:42:48.513Z,100248.03
2022-10-30T21:45:15.833Z,100247.66
2022-10-30T21:47:42.849Z,100235.41
2022-10-30T21:50:12.246Z,100235.56
2022-10-30T21:52:40.416Z,100238.44
2022-10-30T21:55:07.995Z,100249.47
2022-10-30T21:57:35.480Z,100236.03
2022-10-30T22:00:05.767Z,100243.50
2022-10-30T22:02:35.564Z,100233.81
2022-10-30T22:05:02.559Z,100237.00
2022-10-30T22:07:30.563Z,100233.59
2022-10-30T22:09:57.699Z,100244.94
2022-10-30T22:12:24.678Z,100239.50
2022-10-30T22:14:51.742Z,100245.59
2022-10-30T22:17:18.847Z,100242.50
2022-10-30T22:19:45.855Z,100238.56
2022-10-30T22:22:12.902Z,100246.88
2022-10-30T22:24:39.933Z,100248.06
2022-10-30T22:27:06.964Z,100246.09
2022-10-30T22:29:34.086Z,100239.13
2022-10-30T22:32:01.131Z,100239.59
2022-10-30T22:34:28.265Z,100247.63
2022-10-30T22:36:55.273Z,100252.50
2022-10-30T22:39:22.733Z,100253.38
2022-10-30T22:41:49.711Z,100254.19
2022-10-30T22:44:16.706Z,100255.72
2022-10-30T22:46:43.819Z,100257.41
2022-10-30T22:49:11.490Z,100250.72
2022-10-30T22:51:39.432Z,100251.59
2022-10-30T22:54:11.069Z,100255.50
2022-10-30T22:56:39.134Z,100252.16
2022-10-30T22:59:10.604Z,100259.66
2022-10-30T23:01:38.594Z,100253.81
2022-10-30T23:04:07.157Z,100243.78
2022-10-30T23:06:35.265Z,100248.69
2022-10-30T23:09:06.285Z,100255.97
2022-10-30T23:11:33.706Z,100253.25
2022-10-30T23:14:00.910Z,100265.47
2022-10-30T23:16:28.309Z,100259.34
2022-10-30T23:18:57.476Z,100258.53
2022-10-30T23:21:26.152Z,100248.28
2022-10-30T23:23:54.083Z,100249.31
2022-10-30T23:26:24.359Z,100245.03
2022-10-30T23:28:52.937Z,100243.47
2022-10-30T23:31:35.981Z,100249.38
2022-10-30T23:34:06.740Z,100236.94
2022-10-30T23:36:33.816Z,100243.56
2022-10-30T23:39:02.571Z,100246.88
2022-10-30T23:41:31.548Z,100242.44
2022-10-30T23:44:01.383Z,100246.31
2022-10-30T23:46:29.499Z,100251.91
2022-10-30T23:48:57.175Z,100255.31
2022-10-30T23:51:24.937Z,100254.91
2022-10-30T23:53:52.007Z,100256.81
2022-10-30T23:56:19.773Z,100262.25
2022-10-30T23:58:48.906Z,100259.53
